sensor_id;sensor_type;location;lat;lon;timestamp;temperature;humidity
30206;DHT22;17010;51.306;3.150;2023-08-07T01:40:58;14.90;99.90
30206;DHT22;17010;51.306;3.150;2023-08-07T01:49:41;14.90;99.90
30206;DHT22;17010;51.306;3.150;2023-08-07T01:55:13;14.90;99.90
30206;DHT22;17010;51.306;3.150;2023-08-07T01:57:44;14.80;99.90
30206;DHT22;17010;51.306;3.150;2023-08-07T02:00:44;14.90;99.90
30206;DHT22;17010;51.306;3.150;2023-08-07T02:09:02;14.80;99.90
30206;DHT22;17010;51.306;3.150;2023-08-07T03:02:57;14.80;99.90
30206;DHT22;17010;51.306;3.150;2023-08-07T03:41:29;14.90;99.90
30206;DHT22;17010;51.306;3.150;2023-08-07T03:44:29;14.90;99.90
30206;DHT22;17010;51.306;3.150;2023-08-07T04:09:53;14.80;99.90
30206;DHT22;17010;51.306;3.150;2023-08-07T04:22:33;14.90;99.90
30206;DHT22;17010;51.306;3.150;2023-08-07T04:38:59;14.90;99.90
30206;DHT22;17010;51.306;3.150;2023-08-07T04:42:11;14.90;99.90
30206;DHT22;17010;51.306;3.150;2023-08-07T04:47:48;14.90;99.90
30206;DHT22;17010;51.306;3.150;2023-08-07T05:23:49;15.20;99.90
30206;DHT22;17010;51.306;3.150;2023-08-07T05:38:05;16.80;99.90
30206;DHT22;17010;51.306;3.150;2023-08-07T05:41:31;17.10;99.90
30206;DHT22;17010;51.306;3.150;2023-08-07T05:55:38;18.80;99.90
30206;DHT22;17010;51.306;3.150;2023-08-07T05:58:46;19.20;99.90
30206;DHT22;17010;51.306;3.150;2023-08-07T06:10:37;19.10;99.90
30206;DHT22;17010;51.306;3.150;2023-08-07T06:17:23;19.00;99.90
30206;DHT22;17010;51.306;3.150;2023-08-07T06:21:04;18.80;99.90
30206;DHT22;17010;51.306;3.150;2023-08-07T06:24:11;18.30;99.90
30206;DHT22;17010;51.306;3.150;2023-08-07T06:34:02;18.90;99.90
30206;DHT22;17010;51.306;3.150;2023-08-07T06:36:38;19.40;99.90
30206;DHT22;17010;51.306;3.150;2023-08-07T06:39:57;19.80;99.90
30206;DHT22;17010;51.306;3.150;2023-08-07T06:43:03;20.20;99.90
30206;DHT22;17010;51.306;3.150;2023-08-07T06:45:42;20.00;99.90
30206;DHT22;17010;51.306;3.150;2023-08-07T06:49:02;19.70;99.90
30206;DHT22;17010;51.306;3.150;2023-08-07T06:58:48;19.90;99.90
30206;DHT22;17010;51.306;3.150;2023-08-07T07:01:23;20.20;99.90
30206;DHT22;17010;51.306;3.150;2023-08-07T07:05:07;20.30;99.90
30206;DHT22;17010;51.306;3.150;2023-08-07T07:11:04;20.50;99.90
30206;DHT22;17010;51.306;3.150;2023-08-07T07:14:06;20.60;99.90
30206;DHT22;17010;51.306;3.150;2023-08-07T07:17:12;20.70;99.90
30206;DHT22;17010;51.306;3.150;2023-08-07T07:19:55;20.90;99.90
30206;DHT22;17010;51.306;3.150;2023-08-07T07:26:34;21.20;99.90
30206;DHT22;17010;51.306;3.150;2023-08-07T07:29:56;21.50;99.90
30206;DHT22;17010;51.306;3.150;2023-08-07T07:33:14;21.90;99.90
30206;DHT22;17010;51.306;3.150;2023-08-07T07:36:35;21.90;99.90
30206;DHT22;17010;51.306;3.150;2023-08-07T07:39:08;22.40;99.90
30206;DHT22;17010;51.306;3.150;2023-08-07T07:42:13;22.60;99.90
30206;DHT22;17010;51.306;3.150;2023-08-07T07:50:57;23.10;99.90
30206;DHT22;17010;51.306;3.150;2023-08-07T07:53:56;23.00;99.90
30206;DHT22;17010;51.306;3.150;2023-08-07T07:57:21;22.60;99.90
30206;DHT22;17010;51.306;3.150;2023-08-07T08:04:13;22.80;99.90
30206;DHT22;17010;51.306;3.150;2023-08-07T08:07:13;23.00;99.90
30206;DHT22;17010;51.306;3.150;2023-08-07T08:10:04;23.20;99.90
30206;DHT22;17010;51.306;3.150;2023-08-07T08:13:40;23.20;99.90
30206;DHT22;17010;51.306;3.150;2023-08-07T08:16:45;23.30;99.90
30206;DHT22;17010;51.306;3.150;2023-08-07T08:19:33;23.90;99.90
30206;DHT22;17010;51.306;3.150;2023-08-07T08:22:46;24.20;99.90
30206;DHT22;17010;51.306;3.150;2023-08-07T08:25:14;24.20;99.90
30206;DHT22;17010;51.306;3.150;2023-08-07T08:27:44;24.40;99.90
30206;DHT22;17010;51.306;3.150;2023-08-07T08:30:53;24.60;99.90
30206;DHT22;17010;51.306;3.150;2023-08-07T08:33:46;25.10;99.90
30206;DHT22;17010;51.306;3.150;2023-08-07T08:36:46;25.50;99.90
30206;DHT22;17010;51.306;3.150;2023-08-07T08:42:34;25.30;99.90
30206;DHT22;17010;51.306;3.150;2023-08-07T08:45:07;25.10;99.90
30206;DHT22;17010;51.306;3.150;2023-08-07T08:48:20;25.10;99.90
30206;DHT22;17010;51.306;3.150;2023-08-07T08:51:24;24.90;99.90
30206;DHT22;17010;51.306;3.150;2023-08-07T08:54:16;25.00;99.90
30206;DHT22;17010;51.306;3.150;2023-08-07T08:56:50;25.10;99.90
30206;DHT22;17010;51.306;3.150;2023-08-07T08:59:26;25.00;99.90
30206;DHT22;17010;51.306;3.150;2023-08-07T09:05:51;24.70;99.90
30206;DHT22;17010;51.306;3.150;2023-08-07T09:08:52;24.40;99.90
30206;DHT22;17010;51.306;3.150;2023-08-07T09:11:39;24.60;99.90
30206;DHT22;17010;51.306;3.150;2023-08-07T09:17:43;23.70;99.90
30206;DHT22;17010;51.306;3.150;2023-08-07T09:21:12;22.90;99.90
30206;DHT22;17010;51.306;3.150;2023-08-07T09:24:24;22.80;99.90
30206;DHT22;17010;51.306;3.150;2023-08-07T09:27:42;22.20;99.90
30206;DHT22;17010;51.306;3.150;2023-08-07T09:34:05;22.20;99.90
30206;DHT22;17010;51.306;3.150;2023-08-07T09:37:35;22.60;99.90
30206;DHT22;17010;51.306;3.150;2023-08-07T09:40:42;23.40;99.90
30206;DHT22;17010;51.306;3.150;2023-08-07T09:43:46;23.90;99.90
30206;DHT22;17010;51.306;3.150;2023-08-07T09:46:46;24.20;99.90
30206;DHT22;17010;51.306;3.150;2023-08-07T09:49:34;25.10;99.90
30206;DHT22;17010;51.306;3.150;2023-08-07T09:52:25;25.50;99.90
30206;DHT22;17010;51.306;3.150;2023-08-07T09:54:58;25.10;99.90
30206;DHT22;17010;51.306;3.150;2023-08-07T09:57:29;25.00;99.90
30206;DHT22;17010;51.306;3.150;2023-08-07T10:00:07;24.70;99.90
30206;DHT22;17010;51.306;3.150;2023-08-07T10:03:04;24.70;99.90
30206;DHT22;17010;51.306;3.150;2023-08-07T10:05:42;24.60;99.90
30206;DHT22;17010;51.306;3.150;2023-08-07T10:08:15;25.00;99.90
30206;DHT22;17010;51.306;3.150;2023-08-07T10:10:48;25.40;99.90
30206;DHT22;17010;51.306;3.150;2023-08-07T10:13:24;25.50;99.90
30206;DHT22;17010;51.306;3.150;2023-08-07T10:15:59;25.00;99.90
30206;DHT22;17010;51.306;3.150;2023-08-07T10:18:47;24.80;99.90
30206;DHT22;17010;51.306;3.150;2023-08-07T10:21:16;24.80;99.90
30206;DHT22;17010;51.306;3.150;2023-08-07T10:23:50;24.90;99.90
30206;DHT22;17010;51.306;3.150;2023-08-07T10:26:44;24.70;99.90
30206;DHT22;17010;51.306;3.150;2023-08-07T10:29:26;24.70;99.90
30206;DHT22;17010;51.306;3.150;2023-08-07T10:31:56;25.00;99.90
30206;DHT22;17010;51.306;3.150;2023-08-07T10:34:40;24.70;99.90
30206;DHT22;17010;51.306;3.150;2023-08-07T10:40:33;25.50;99.90
30206;DHT22;17010;51.306;3.150;2023-08-07T10:43:32;26.20;99.90
30206;DHT22;17010;51.306;3.150;2023-08-07T10:46:22;26.60;99.90
30206;DHT22;17010;51.306;3.150;2023-08-07T10:48:56;26.20;99.90
30206;DHT22;17010;51.306;3.150;2023-08-07T10:51:31;26.00;99.90
30206;DHT22;17010;51.306;3.150;2023-08-07T10:54:01;26.30;99.90
30206;DHT22;17010;51.306;3.150;2023-08-07T10:56:33;26.70;99.90
30206;DHT22;17010;51.306;3.150;2023-08-07T10:59:12;26.20;99.90
30206;DHT22;17010;51.306;3.150;2023-08-07T11:02:03;25.50;99.90
30206;DHT22;17010;51.306;3.150;2023-08-07T11:04:36;25.50;99.90
30206;DHT22;17010;51.306;3.150;2023-08-07T11:07:08;26.10;99.90
30206;DHT22;17010;51.306;3.150;2023-08-07T11:09:43;26.80;99.90
30206;DHT22;17010;51.306;3.150;2023-08-07T11:12:48;27.50;99.90
30206;DHT22;17010;51.306;3.150;2023-08-07T11:15:41;27.10;99.90
30206;DHT22;17010;51.306;3.150;2023-08-07T11:18:19;27.80;99.90
30206;DHT22;17010;51.306;3.150;2023-08-07T11:21:04;27.70;99.90
30206;DHT22;17010;51.306;3.150;2023-08-07T11:23:58;28.00;99.90
30206;DHT22;17010;51.306;3.150;2023-08-07T11:32:28;27.50;99.90
30206;DHT22;17010;51.306;3.150;2023-08-07T11:35:30;27.40;99.90
30206;DHT22;17010;51.306;3.150;2023-08-07T11:41:15;26.80;99.90
30206;DHT22;17010;51.306;3.150;2023-08-07T11:43:55;26.70;99.90
30206;DHT22;17010;51.306;3.150;2023-08-07T11:47:02;26.60;99.90
30206;DHT22;17010;51.306;3.150;2023-08-07T11:49:53;26.90;99.90
30206;DHT22;17010;51.306;3.150;2023-08-07T11:53:08;27.10;99.90
30206;DHT22;17010;51.306;3.150;2023-08-07T11:56:09;27.40;99.90
30206;DHT22;17010;51.306;3.150;2023-08-07T11:59:16;28.00;99.90
30206;DHT22;17010;51.306;3.150;2023-08-07T12:01:51;27.90;99.90
30206;DHT22;17010;51.306;3.150;2023-08-07T12:04:30;27.90;99.90
30206;DHT22;17010;51.306;3.150;2023-08-07T12:08:06;27.50;99.90
30206;DHT22;17010;51.306;3.150;2023-08-07T12:11:11;26.80;99.90
30206;DHT22;17010;51.306;3.150;2023-08-07T12:14:20;26.80;99.90
30206;DHT22;17010;51.306;3.150;2023-08-07T12:17:45;26.40;99.90
30206;DHT22;17010;51.306;3.150;2023-08-07T12:31:08;24.80;99.90
30206;DHT22;17010;51.306;3.150;2023-08-07T12:33:56;25.70;99.90
30206;DHT22;17010;51.306;3.150;2023-08-07T12:39:14;25.20;99.90
30206;DHT22;17010;51.306;3.150;2023-08-07T12:41:47;25.20;99.90
30206;DHT22;17010;51.306;3.150;2023-08-07T12:45:10;25.60;99.90
30206;DHT22;17010;51.306;3.150;2023-08-07T12:48:13;26.20;99.90
30206;DHT22;17010;51.306;3.150;2023-08-07T12:50:41;26.70;99.90
30206;DHT22;17010;51.306;3.150;2023-08-07T12:53:38;27.20;99.90
30206;DHT22;17010;51.306;3.150;2023-08-07T13:00:13;26.70;99.90
30206;DHT22;17010;51.306;3.150;2023-08-07T13:03:10;26.70;99.90
30206;DHT22;17010;51.306;3.150;2023-08-07T13:05:46;27.00;99.90
30206;DHT22;17010;51.306;3.150;2023-08-07T13:08:37;27.00;99.90
30206;DHT22;17010;51.306;3.150;2023-08-07T13:11:35;26.10;99.90
30206;DHT22;17010;51.306;3.150;2023-08-07T13:14:08;25.10;99.90
30206;DHT22;17010;51.306;3.150;2023-08-07T13:19:23;25.10;99.90
30206;DHT22;17010;51.306;3.150;2023-08-07T13:22:29;24.90;99.90
30206;DHT22;17010;51.306;3.150;2023-08-07T13:25:30;25.20;99.90
30206;DHT22;17010;51.306;3.150;2023-08-07T13:28:13;25.50;99.90
30206;DHT22;17010;51.306;3.150;2023-08-07T13:31:42;25.40;99.90
30206;DHT22;17010;51.306;3.150;2023-08-07T13:34:58;24.20;99.90
30206;DHT22;17010;51.306;3.150;2023-08-07T13:37:26;23.80;99.90
30206;DHT22;17010;51.306;3.150;2023-08-07T13:39:56;23.80;99.90
30206;DHT22;17010;51.306;3.150;2023-08-07T13:42:26;24.00;99.90
30206;DHT22;17010;51.306;3.150;2023-08-07T13:44:54;24.20;99.90
30206;DHT22;17010;51.306;3.150;2023-08-07T13:47:25;24.40;99.90
30206;DHT22;17010;51.306;3.150;2023-08-07T13:49:55;24.20;99.90
30206;DHT22;17010;51.306;3.150;2023-08-07T13:52:33;23.60;99.90
30206;DHT22;17010;51.306;3.150;2023-08-07T13:55:00;23.70;99.90
30206;DHT22;17010;51.306;3.150;2023-08-07T13:57:38;23.60;99.90
30206;DHT22;17010;51.306;3.150;2023-08-07T14:00:05;23.50;99.90
30206;DHT22;17010;51.306;3.150;2023-08-07T14:02:37;23.10;99.90
30206;DHT22;17010;51.306;3.150;2023-08-07T14:05:06;23.00;99.90
30206;DHT22;17010;51.306;3.150;2023-08-07T14:07:32;22.60;99.90
30206;DHT22;17010;51.306;3.150;2023-08-07T14:09:59;22.40;99.90
30206;DHT22;17010;51.306;3.150;2023-08-07T14:12:27;22.30;99.90
30206;DHT22;17010;51.306;3.150;2023-08-07T14:14:54;22.30;99.90
30206;DHT22;17010;51.306;3.150;2023-08-07T14:17:20;22.30;99.90
30206;DHT22;17010;51.306;3.150;2023-08-07T14:19:47;22.50;99.90
30206;DHT22;17010;51.306;3.150;2023-08-07T14:22:14;22.60;99.90
30206;DHT22;17010;51.306;3.150;2023-08-07T14:24:41;22.80;99.90
30206;DHT22;17010;51.306;3.150;2023-08-07T14:27:07;22.90;99.90
30206;DHT22;17010;51.306;3.150;2023-08-07T14:29:34;22.90;99.90
30206;DHT22;17010;51.306;3.150;2023-08-07T14:32:01;22.90;99.90
30206;DHT22;17010;51.306;3.150;2023-08-07T14:34:28;22.40;99.90
30206;DHT22;17010;51.306;3.150;2023-08-07T14:36:57;22.00;99.90
30206;DHT22;17010;51.306;3.150;2023-08-07T14:39:23;21.60;99.90
30206;DHT22;17010;51.306;3.150;2023-08-07T14:41:53;21.40;99.90
30206;DHT22;17010;51.306;3.150;2023-08-07T14:44:21;21.40;99.90
30206;DHT22;17010;51.306;3.150;2023-08-07T14:46:49;21.40;99.90
30206;DHT22;17010;51.306;3.150;2023-08-07T14:49:16;21.50;99.90
30206;DHT22;17010;51.306;3.150;2023-08-07T14:51:42;21.50;99.90
30206;DHT22;17010;51.306;3.150;2023-08-07T14:54:09;21.40;99.90
30206;DHT22;17010;51.306;3.150;2023-08-07T14:56:35;21.30;99.90
30206;DHT22;17010;51.306;3.150;2023-08-07T14:59:02;21.60;99.90
30206;DHT22;17010;51.306;3.150;2023-08-07T15:01:32;21.60;99.90
30206;DHT22;17010;51.306;3.150;2023-08-07T15:03:58;21.60;99.90
30206;DHT22;17010;51.306;3.150;2023-08-07T15:06:26;21.60;99.90
30206;DHT22;17010;51.306;3.150;2023-08-07T15:08:52;21.60;99.90
30206;DHT22;17010;51.306;3.150;2023-08-07T15:11:19;21.60;99.90
30206;DHT22;17010;51.306;3.150;2023-08-07T15:13:45;21.60;99.90
30206;DHT22;17010;51.306;3.150;2023-08-07T15:16:11;21.60;99.90
30206;DHT22;17010;51.306;3.150;2023-08-07T15:18:39;21.40;99.90
30206;DHT22;17010;51.306;3.150;2023-08-07T15:21:05;21.20;99.90
30206;DHT22;17010;51.306;3.150;2023-08-07T15:23:33;21.10;99.90
30206;DHT22;17010;51.306;3.150;2023-08-07T15:26:00;21.10;99.90
30206;DHT22;17010;51.306;3.150;2023-08-07T15:28:26;20.90;99.90
30206;DHT22;17010;51.306;3.150;2023-08-07T15:30:53;20.80;99.90
30206;DHT22;17010;51.306;3.150;2023-08-07T15:33:20;20.90;99.90
30206;DHT22;17010;51.306;3.150;2023-08-07T15:35:46;20.70;99.90
30206;DHT22;17010;51.306;3.150;2023-08-07T15:38:13;20.60;99.90
30206;DHT22;17010;51.306;3.150;2023-08-07T15:40:40;20.60;99.90
30206;DHT22;17010;51.306;3.150;2023-08-07T15:43:10;20.50;99.90
30206;DHT22;17010;51.306;3.150;2023-08-07T15:45:38;20.40;99.90
30206;DHT22;17010;51.306;3.150;2023-08-07T15:48:05;20.40;99.90
30206;DHT22;17010;51.306;3.150;2023-08-07T15:50:31;20.40;99.90
30206;DHT22;17010;51.306;3.150;2023-08-07T15:53:04;20.50;99.90
30206;DHT22;17010;51.306;3.150;2023-08-07T15:55:31;20.60;99.90
30206;DHT22;17010;51.306;3.150;2023-08-07T15:58:04;20.60;99.90
30206;DHT22;17010;51.306;3.150;2023-08-07T16:00:32;20.30;99.90
30206;DHT22;17010;51.306;3.150;2023-08-07T16:03:02;20.30;99.90
30206;DHT22;17010;51.306;3.150;2023-08-07T16:05:34;20.40;99.90
30206;DHT22;17010;51.306;3.150;2023-08-07T16:08:01;20.40;99.90
30206;DHT22;17010;51.306;3.150;2023-08-07T16:10:28;20.30;99.90
30206;DHT22;17010;51.306;3.150;2023-08-07T16:12:55;20.20;99.90
30206;DHT22;17010;51.306;3.150;2023-08-07T16:15:22;20.30;99.90
30206;DHT22;17010;51.306;3.150;2023-08-07T16:17:49;20.30;99.90
30206;DHT22;17010;51.306;3.150;2023-08-07T16:20:15;20.20;99.90
30206;DHT22;17010;51.306;3.150;2023-08-07T16:22:42;20.30;99.90
30206;DHT22;17010;51.306;3.150;2023-08-07T16:25:08;20.30;99.90
30206;DHT22;17010;51.306;3.150;2023-08-07T16:27:35;20.40;99.90
30206;DHT22;17010;51.306;3.150;2023-08-07T16:30:04;20.40;99.90
30206;DHT22;17010;51.306;3.150;2023-08-07T16:32:31;20.50;99.90
30206;DHT22;17010;51.306;3.150;2023-08-07T16:35:00;20.40;99.90
30206;DHT22;17010;51.306;3.150;2023-08-07T16:37:28;20.50;99.90
30206;DHT22;17010;51.306;3.150;2023-08-07T16:39:55;20.50;99.90
30206;DHT22;17010;51.306;3.150;2023-08-07T16:42:23;20.60;99.90
30206;DHT22;17010;51.306;3.150;2023-08-07T16:44:49;20.50;99.90
30206;DHT22;17010;51.306;3.150;2023-08-07T16:47:16;20.50;99.90
30206;DHT22;17010;51.306;3.150;2023-08-07T16:49:43;20.40;99.90
30206;DHT22;17010;51.306;3.150;2023-08-07T16:52:10;20.40;99.90
30206;DHT22;17010;51.306;3.150;2023-08-07T16:54:37;20.20;99.90
30206;DHT22;17010;51.306;3.150;2023-08-07T16:57:05;20.20;99.90
30206;DHT22;17010;51.306;3.150;2023-08-07T16:59:31;20.20;99.90
30206;DHT22;17010;51.306;3.150;2023-08-07T17:01:58;20.30;99.90
30206;DHT22;17010;51.306;3.150;2023-08-07T17:04:24;20.30;99.90
30206;DHT22;17010;51.306;3.150;2023-08-07T17:06:51;20.10;99.90
30206;DHT22;17010;51.306;3.150;2023-08-07T17:09:17;20.10;99.90
30206;DHT22;17010;51.306;3.150;2023-08-07T17:11:45;20.10;99.90
30206;DHT22;17010;51.306;3.150;2023-08-07T17:14:11;20.10;99.90
30206;DHT22;17010;51.306;3.150;2023-08-07T17:16:38;20.10;99.90
30206;DHT22;17010;51.306;3.150;2023-08-07T17:19:04;20.10;99.90
30206;DHT22;17010;51.306;3.150;2023-08-07T17:21:31;20.10;99.90
30206;DHT22;17010;51.306;3.150;2023-08-07T17:23:57;20.00;99.90
30206;DHT22;17010;51.306;3.150;2023-08-07T17:26:27;20.10;99.90
30206;DHT22;17010;51.306;3.150;2023-08-07T17:28:56;20.10;99.90
30206;DHT22;17010;51.306;3.150;2023-08-07T17:31:24;20.00;99.90
30206;DHT22;17010;51.306;3.150;2023-08-07T17:33:50;20.00;99.90
30206;DHT22;17010;51.306;3.150;2023-08-07T17:36:17;20.00;99.90
30206;DHT22;17010;51.306;3.150;2023-08-07T17:38:43;20.00;99.90
30206;DHT22;17010;51.306;3.150;2023-08-07T17:41:10;19.90;99.90
30206;DHT22;17010;51.306;3.150;2023-08-07T17:43:36;19.80;99.90
30206;DHT22;17010;51.306;3.150;2023-08-07T17:46:04;19.80;99.90
30206;DHT22;17010;51.306;3.150;2023-08-07T17:48:32;19.80;99.90
30206;DHT22;17010;51.306;3.150;2023-08-07T17:51:06;19.80;99.90
30206;DHT22;17010;51.306;3.150;2023-08-07T17:53:34;19.80;99.90
30206;DHT22;17010;51.306;3.150;2023-08-07T17:56:02;19.80;99.90
30206;DHT22;17010;51.306;3.150;2023-08-07T17:58:30;19.70;99.90
30206;DHT22;17010;51.306;3.150;2023-08-07T18:00:58;19.60;99.90
30206;DHT22;17010;51.306;3.150;2023-08-07T18:03:29;19.60;99.90
30206;DHT22;17010;51.306;3.150;2023-08-07T18:06:00;19.50;99.90
30206;DHT22;17010;51.306;3.150;2023-08-07T18:08:31;19.50;99.90
30206;DHT22;17010;51.306;3.150;2023-08-07T18:11:01;19.40;99.90
30206;DHT22;17010;51.306;3.150;2023-08-07T18:13:31;19.30;99.90
30206;DHT22;17010;51.306;3.150;2023-08-07T18:16:01;19.30;99.90
30206;DHT22;17010;51.306;3.150;2023-08-07T18:18:32;19.30;99.90
30206;DHT22;17010;51.306;3.150;2023-08-07T18:21:03;19.20;99.90
30206;DHT22;17010;51.306;3.150;2023-08-07T18:23:34;19.20;99.90
30206;DHT22;17010;51.306;3.150;2023-08-07T18:26:07;19.20;99.90
30206;DHT22;17010;51.306;3.150;2023-08-07T18:28:39;19.20;99.90
30206;DHT22;17010;51.306;3.150;2023-08-07T18:31:14;19.20;99.90
30206;DHT22;17010;51.306;3.150;2023-08-07T18:33:45;19.30;99.90
30206;DHT22;17010;51.306;3.150;2023-08-07T18:36:18;19.30;99.90
30206;DHT22;17010;51.306;3.150;2023-08-07T18:38:54;19.20;99.90
30206;DHT22;17010;51.306;3.150;2023-08-07T18:41:25;19.10;99.90
30206;DHT22;17010;51.306;3.150;2023-08-07T18:43:56;19.10;99.90
30206;DHT22;17010;51.306;3.150;2023-08-07T18:46:27;19.00;99.90
30206;DHT22;17010;51.306;3.150;2023-08-07T18:48:57;19.00;99.90
30206;DHT22;17010;51.306;3.150;2023-08-07T18:51:29;18.90;99.90
30206;DHT22;17010;51.306;3.150;2023-08-07T18:53:58;18.90;99.90
30206;DHT22;17010;51.306;3.150;2023-08-07T18:56:29;18.80;99.90
30206;DHT22;17010;51.306;3.150;2023-08-07T18:58:59;18.70;99.90
30206;DHT22;17010;51.306;3.150;2023-08-07T19:01:32;18.80;99.90
30206;DHT22;17010;51.306;3.150;2023-08-07T19:04:01;18.70;99.90
30206;DHT22;17010;51.306;3.150;2023-08-07T19:06:32;18.60;99.90
30206;DHT22;17010;51.306;3.150;2023-08-07T19:09:04;18.60;99.90
30206;DHT22;17010;51.306;3.150;2023-08-07T19:11:40;18.40;99.90
30206;DHT22;17010;51.306;3.150;2023-08-07T19:14:12;18.50;99.90
30206;DHT22;17010;51.306;3.150;2023-08-07T19:16:41;18.70;99.90
30206;DHT22;17010;51.306;3.150;2023-08-07T19:19:14;18.40;99.90
30206;DHT22;17010;51.306;3.150;2023-08-07T19:21:45;18.40;99.90
30206;DHT22;17010;51.306;3.150;2023-08-07T19:24:20;18.40;99.90
30206;DHT22;17010;51.306;3.150;2023-08-07T19:26:50;18.30;99.90
30206;DHT22;17010;51.306;3.150;2023-08-07T19:29:22;18.30;99.90
30206;DHT22;17010;51.306;3.150;2023-08-07T19:31:52;18.20;99.90
30206;DHT22;17010;51.306;3.150;2023-08-07T19:34:23;18.10;99.90
30206;DHT22;17010;51.306;3.150;2023-08-07T19:36:54;18.10;99.90
30206;DHT22;17010;51.306;3.150;2023-08-07T19:39:25;18.00;99.90
30206;DHT22;17010;51.306;3.150;2023-08-07T19:41:56;18.00;99.90
30206;DHT22;17010;51.306;3.150;2023-08-07T19:44:28;18.10;99.90
30206;DHT22;17010;51.306;3.150;2023-08-07T19:47:00;18.00;99.90
30206;DHT22;17010;51.306;3.150;2023-08-07T19:49:30;18.00;99.90
30206;DHT22;17010;51.306;3.150;2023-08-07T19:52:01;18.00;99.90
30206;DHT22;17010;51.306;3.150;2023-08-07T19:54:29;17.90;99.90
30206;DHT22;17010;51.306;3.150;2023-08-07T19:56:57;17.80;99.90
30206;DHT22;17010;51.306;3.150;2023-08-07T19:59:24;17.70;99.90
30206;DHT22;17010;51.306;3.150;2023-08-07T20:01:52;17.70;99.90
30206;DHT22;17010;51.306;3.150;2023-08-07T20:04:20;17.60;99.90
30206;DHT22;17010;51.306;3.150;2023-08-07T20:06:47;17.60;99.90
30206;DHT22;17010;51.306;3.150;2023-08-07T20:09:16;17.50;99.90
30206;DHT22;17010;51.306;3.150;2023-08-07T20:11:44;17.40;99.90
30206;DHT22;17010;51.306;3.150;2023-08-07T20:14:12;17.30;99.90
30206;DHT22;17010;51.306;3.150;2023-08-07T20:16:39;17.20;99.90
30206;DHT22;17010;51.306;3.150;2023-08-07T20:19:07;17.10;99.90
30206;DHT22;17010;51.306;3.150;2023-08-07T20:21:35;17.10;99.90
30206;DHT22;17010;51.306;3.150;2023-08-07T20:24:06;17.00;99.90
30206;DHT22;17010;51.306;3.150;2023-08-07T20:26:37;16.90;99.90
30206;DHT22;17010;51.306;3.150;2023-08-07T20:29:06;16.80;99.90
30206;DHT22;17010;51.306;3.150;2023-08-07T20:31:34;16.80;99.90
30206;DHT22;17010;51.306;3.150;2023-08-07T20:34:04;16.70;99.90
30206;DHT22;17010;51.306;3.150;2023-08-07T20:36:30;16.70;99.90
30206;DHT22;17010;51.306;3.150;2023-08-07T20:38:58;16.60;99.90
30206;DHT22;17010;51.306;3.150;2023-08-07T20:41:24;16.60;99.90
30206;DHT22;17010;51.306;3.150;2023-08-07T20:43:50;16.50;99.90
30206;DHT22;17010;51.306;3.150;2023-08-07T20:46:17;16.50;99.90
30206;DHT22;17010;51.306;3.150;2023-08-07T20:48:43;16.50;99.90
30206;DHT22;17010;51.306;3.150;2023-08-07T20:51:11;16.40;99.90
30206;DHT22;17010;51.306;3.150;2023-08-07T20:53:37;16.40;99.90
30206;DHT22;17010;51.306;3.150;2023-08-07T20:56:04;16.30;99.90
30206;DHT22;17010;51.306;3.150;2023-08-07T20:58:30;16.30;99.90
30206;DHT22;17010;51.306;3.150;2023-08-07T21:00:58;16.20;99.90
30206;DHT22;17010;51.306;3.150;2023-08-07T21:03:25;16.20;99.90
30206;DHT22;17010;51.306;3.150;2023-08-07T21:05:51;16.10;99.90
30206;DHT22;17010;51.306;3.150;2023-08-07T21:08:17;16.10;99.90
30206;DHT22;17010;51.306;3.150;2023-08-07T21:10:43;16.00;99.90
30206;DHT22;17010;51.306;3.150;2023-08-07T21:13:09;16.00;99.90
30206;DHT22;17010;51.306;3.150;2023-08-07T21:15:35;16.00;99.90
30206;DHT22;17010;51.306;3.150;2023-08-07T21:18:03;15.90;99.90
30206;DHT22;17010;51.306;3.150;2023-08-07T21:20:30;15.90;99.90
30206;DHT22;17010;51.306;3.150;2023-08-07T21:22:56;15.80;99.90
30206;DHT22;17010;51.306;3.150;2023-08-07T21:25:22;15.80;99.90
30206;DHT22;17010;51.306;3.150;2023-08-07T21:27:48;15.80;99.90
30206;DHT22;17010;51.306;3.150;2023-08-07T21:30:15;15.80;99.90
30206;DHT22;17010;51.306;3.150;2023-08-07T21:32:41;15.70;99.90
30206;DHT22;17010;51.306;3.150;2023-08-07T21:35:13;15.70;99.90
30206;DHT22;17010;51.306;3.150;2023-08-07T21:37:40;15.70;99.90
30206;DHT22;17010;51.306;3.150;2023-08-07T21:40:07;15.70;99.90
30206;DHT22;17010;51.306;3.150;2023-08-07T21:42:37;15.60;99.90
30206;DHT22;17010;51.306;3.150;2023-08-07T21:45:03;15.60;99.90
30206;DHT22;17010;51.306;3.150;2023-08-07T21:47:31;15.60;99.90
30206;DHT22;17010;51.306;3.150;2023-08-07T21:49:57;15.60;99.90
30206;DHT22;17010;51.306;3.150;2023-08-07T21:52:23;15.60;99.90
30206;DHT22;17010;51.306;3.150;2023-08-07T21:54:50;15.60;99.90
30206;DHT22;17010;51.306;3.150;2023-08-07T21:57:16;15.50;99.90
30206;DHT22;17010;51.306;3.150;2023-08-07T21:59:42;15.50;99.90
30206;DHT22;17010;51.306;3.150;2023-08-07T22:02:09;15.50;99.90
30206;DHT22;17010;51.306;3.150;2023-08-07T22:04:36;15.50;99.90
30206;DHT22;17010;51.306;3.150;2023-08-07T22:07:02;15.40;99.90
30206;DHT22;17010;51.306;3.150;2023-08-07T22:09:29;15.40;99.90
30206;DHT22;17010;51.306;3.150;2023-08-07T22:11:55;15.40;99.90
30206;DHT22;17010;51.306;3.150;2023-08-07T22:14:21;15.40;99.90
30206;DHT22;17010;51.306;3.150;2023-08-07T22:16:47;15.40;99.90
30206;DHT22;17010;51.306;3.150;2023-08-07T22:19:15;15.30;99.90
30206;DHT22;17010;51.306;3.150;2023-08-07T22:21:41;15.30;99.90
30206;DHT22;17010;51.306;3.150;2023-08-07T22:24:08;15.30;99.90
30206;DHT22;17010;51.306;3.150;2023-08-07T22:26:34;15.30;99.90
30206;DHT22;17010;51.306;3.150;2023-08-07T22:29:00;15.30;99.90
30206;DHT22;17010;51.306;3.150;2023-08-07T22:31:27;15.20;99.90
30206;DHT22;17010;51.306;3.150;2023-08-07T22:33:53;15.20;99.90
30206;DHT22;17010;51.306;3.150;2023-08-07T22:36:20;15.20;99.90
30206;DHT22;17010;51.306;3.150;2023-08-07T22:38:46;15.10;99.90
30206;DHT22;17010;51.306;3.150;2023-08-07T22:41:13;15.10;99.90
30206;DHT22;17010;51.306;3.150;2023-08-07T22:43:42;15.10;99.90
30206;DHT22;17010;51.306;3.150;2023-08-07T22:46:09;15.10;99.90
30206;DHT22;17010;51.306;3.150;2023-08-07T22:48:35;15.10;99.90
30206;DHT22;17010;51.306;3.150;2023-08-07T22:51:01;15.10;99.90
30206;DHT22;17010;51.306;3.150;2023-08-07T22:53:27;15.00;99.90
30206;DHT22;17010;51.306;3.150;2023-08-07T22:55:53;15.00;99.90
30206;DHT22;17010;51.306;3.150;2023-08-07T22:58:21;15.00;99.90
30206;DHT22;17010;51.306;3.150;2023-08-07T23:00:50;15.00;99.90
30206;DHT22;17010;51.306;3.150;2023-08-07T23:03:16;15.00;99.90
30206;DHT22;17010;51.306;3.150;2023-08-07T23:05:42;14.90;99.90
30206;DHT22;17010;51.306;3.150;2023-08-07T23:08:08;14.90;99.90
30206;DHT22;17010;51.306;3.150;2023-08-07T23:10:34;14.90;99.90